Time;durP1;ratioP1;P1;durP2;ratioP2;P2;SDS_P1;SDS_P2;PMS_P1;PMS_P2;Temp;Humidity;BMP_temperature;BMP_pressure;BME280_temperature;BME280_humidity;BME280_pressure;Samples;Min_cycle;Max_cycle;Signal;HPM_P1;HPM_P2
2022/07/23 00:01:29;;;;;;;3.58;2.35;;;16.40;99.90;;;;;;5111180;28;20072;-68
2022/07/23 00:03:56;;;;;;;3.60;2.67;;;16.30;99.90;;;;;;5067841;28;20051;-67
2022/07/23 00:06:22;;;;;;;5.65;2.65;;;16.30;99.90;;;;;;5071930;28;20041;-68
2022/07/23 00:08:48;;;;;;;3.97;2.55;;;16.30;99.90;;;;;;5070516;28;20036;-67
2022/07/23 00:11:13;;;;;;;4.25;2.20;;;16.30;99.90;;;;;;5072358;28;20035;-67
2022/07/23 00:13:39;;;;;;;3.05;2.20;;;16.20;99.90;;;;;;5071099;28;20189;-67
2022/07/23 00:16:05;;;;;;;4.65;2.53;;;16.20;99.90;;;;;;5072093;28;20040;-67
2022/07/23 00:18:31;;;;;;;4.28;2.63;;;16.10;99.90;;;;;;5071602;28;20052;-67
2022/07/23 00:20:56;;;;;;;3.75;2.50;;;16.10;99.90;;;;;;5070105;28;20051;-67
2022/07/23 00:23:22;;;;;;;10.57;2.85;;;16.00;99.90;;;;;;5071559;28;20167;-67
2022/07/23 00:25:47;;;;;;;3.10;2.80;;;16.00;99.90;;;;;;5071649;28;20044;-67
2022/07/23 00:28:13;;;;;;;3.95;2.90;;;16.10;99.90;;;;;;5070193;28;20115;-67
2022/07/23 00:30:38;;;;;;;7.60;2.83;;;16.10;99.90;;;;;;5071491;28;20032;-67
2022/07/23 00:33:06;;;;;;;8.77;3.42;;;16.10;99.90;;;;;;5071286;28;20231;-68
2022/07/23 00:35:35;;;;;;;3.95;3.17;;;16.10;99.90;;;;;;5071624;28;20048;-67
2022/07/23 00:38:02;;;;;;;6.65;3.13;;;16.00;99.90;;;;;;5070123;28;20056;-68
2022/07/23 00:40:28;;;;;;;5.25;3.15;;;16.10;99.90;;;;;;5071446;28;20037;-67
2022/07/23 00:42:54;;;;;;;3.30;2.78;;;16.00;99.90;;;;;;5071086;28;20076;-68
2022/07/23 00:45:20;;;;;;;5.47;2.88;;;15.90;99.90;;;;;;5072905;28;20471;-68
2022/07/23 00:47:45;;;;;;;3.45;2.75;;;15.90;99.90;;;;;;5070549;28;20044;-68
2022/07/23 00:50:11;;;;;;;4.00;3.00;;;15.90;99.90;;;;;;5071182;28;20149;-68
2022/07/23 00:52:38;;;;;;;4.72;2.88;;;15.90;99.90;;;;;;5070875;28;20119;-68
2022/07/23 00:55:06;;;;;;;3.95;3.17;;;15.90;99.90;;;;;;5069831;28;20104;-68
2022/07/23 00:57:32;;;;;;;4.45;3.42;;;15.80;99.90;;;;;;5070953;28;20519;-68
2022/07/23 00:59:57;;;;;;;4.03;2.83;;;15.80;99.90;;;;;;5069608;28;20134;-68
2022/07/23 01:02:24;;;;;;;5.90;3.05;;;15.70;99.90;;;;;;5069203;28;20070;-68
2022/07/23 01:04:50;;;;;;;6.20;3.60;;;15.70;99.90;;;;;;5070674;28;20040;-68
2022/07/23 01:07:16;;;;;;;5.88;3.17;;;15.70;99.90;;;;;;5069434;28;20371;-68
2022/07/23 01:09:44;;;;;;;5.20;3.25;;;15.70;99.90;;;;;;5069516;28;20040;-68
2022/07/23 01:12:10;;;;;;;7.00;3.33;;;15.70;99.90;;;;;;5069005;28;20114;-67
2022/07/23 01:14:35;;;;;;;5.22;3.53;;;15.70;99.90;;;;;;5070349;28;20071;-68
2022/07/23 01:17:01;;;;;;;3.67;3.30;;;15.70;99.90;;;;;;5070570;28;20090;-68
2022/07/23 01:19:27;;;;;;;5.35;3.20;;;15.80;99.90;;;;;;5069156;28;20044;-68
2022/07/23 01:21:54;;;;;;;10.55;3.70;;;15.70;99.90;;;;;;5070381;28;20068;-67
2022/07/23 01:24:20;;;;;;;5.75;3.50;;;15.70;99.90;;;;;;5069079;28;20106;-68
2022/07/23 01:26:47;;;;;;;5.30;3.35;;;15.70;99.90;;;;;;5068842;28;20076;-68
2022/07/23 01:29:14;;;;;;;4.22;3.17;;;15.70;99.90;;;;;;5068885;28;20047;-68
2022/07/23 01:31:40;;;;;;;6.28;3.53;;;15.70;99.90;;;;;;5070822;28;20086;-68
2022/07/23 01:34:06;;;;;;;5.50;3.60;;;15.70;99.90;;;;;;5070241;28;20041;-68
2022/07/23 01:36:33;;;;;;;4.90;3.75;;;15.60;99.90;;;;;;5068954;28;20097;-68
2022/07/23 01:38:58;;;;;;;3.70;3.38;;;15.60;99.90;;;;;;5070176;28;20083;-67
2022/07/23 01:41:24;;;;;;;6.18;3.58;;;15.60;99.90;;;;;;5070162;28;20118;-68
2022/07/23 01:43:49;;;;;;;5.50;3.80;;;15.50;99.90;;;;;;5069817;28;20036;-68
2022/07/23 01:46:15;;;;;;;4.43;3.60;;;15.50;99.90;;;;;;5070352;28;20044;-67
2022/07/23 01:48:41;;;;;;;5.13;3.22;;;15.50;99.90;;;;;;5070096;28;20036;-68
2022/07/23 01:51:07;;;;;;;4.15;3.55;;;15.40;99.90;;;;;;5070195;28;20033;-68
2022/07/23 01:53:33;;;;;;;6.00;4.10;;;15.30;99.90;;;;;;5070014;28;20044;-68
2022/07/23 01:55:59;;;;;;;8.13;3.50;;;15.30;99.90;;;;;;5072094;28;20043;-68
2022/07/23 01:58:26;;;;;;;4.28;3.50;;;15.30;99.90;;;;;;5071301;28;20083;-67
2022/07/23 02:00:53;;;;;;;6.82;3.95;;;15.20;99.90;;;;;;5070149;28;20052;-68
2022/07/23 02:03:19;;;;;;;4.32;3.15;;;15.20;99.90;;;;;;5068652;28;20089;-68
2022/07/23 02:05:44;;;;;;;6.82;3.25;;;15.20;99.90;;;;;;5068562;28;20449;-67
2022/07/23 02:08:10;;;;;;;3.83;3.45;;;15.20;99.90;;;;;;5068923;28;20451;-68
2022/07/23 02:10:35;;;;;;;3.67;3.25;;;15.10;99.90;;;;;;5069846;28;20102;-68
2022/07/23 02:13:01;;;;;;;7.57;3.35;;;15.00;99.90;;;;;;5068372;28;20033;-68
2022/07/23 02:15:28;;;;;;;4.03;3.10;;;15.10;99.90;;;;;;5070075;28;20032;-68
2022/07/23 02:17:54;;;;;;;5.88;3.22;;;15.00;99.90;;;;;;5070095;28;20167;-68
2022/07/23 02:20:20;;;;;;;3.80;3.10;;;15.00;99.90;;;;;;5069711;28;20090;-67
2022/07/23 02:22:45;;;;;;;4.25;3.38;;;15.00;99.90;;;;;;5068593;28;20052;-68
2022/07/23 02:25:11;;;;;;;6.70;3.30;;;15.00;99.90;;;;;;5068264;28;20056;-68
2022/07/23 02:27:37;;;;;;;4.40;3.20;;;14.90;99.90;;;;;;5073433;28;20435;-68
2022/07/23 02:30:03;;;;;;;3.50;3.20;;;14.80;99.90;;;;;;5073991;28;20067;-68
2022/07/23 02:32:28;;;;;;;5.72;2.95;;;14.70;99.90;;;;;;5073874;28;20036;-68
2022/07/23 02:34:54;;;;;;;2.72;2.50;;;14.70;99.90;;;;;;5073808;28;20201;-68
2022/07/23 02:37:19;;;;;;;4.63;2.88;;;14.70;99.90;;;;;;5073764;28;20141;-67
2022/07/23 02:39:45;;;;;;;3.03;2.72;;;14.70;99.90;;;;;;5073437;28;20059;-67
2022/07/23 02:42:11;;;;;;;3.13;2.58;;;14.60;99.90;;;;;;5073541;28;20053;-67
2022/07/23 02:44:37;;;;;;;4.05;2.60;;;14.60;99.90;;;;;;5073558;28;20119;-67
2022/07/23 02:47:02;;;;;;;3.08;2.78;;;14.60;99.90;;;;;;5073371;28;20500;-67
2022/07/23 02:49:28;;;;;;;7.20;3.13;;;14.60;99.90;;;;;;5073444;28;20056;-68
2022/07/23 02:51:53;;;;;;;4.18;3.35;;;14.60;99.90;;;;;;5072549;28;20049;-68
2022/07/23 02:54:19;;;;;;;6.65;3.42;;;14.50;99.90;;;;;;5073199;28;20055;-67
2022/07/23 02:56:45;;;;;;;8.80;3.80;;;14.60;99.90;;;;;;5073546;28;20404;-68
2022/07/23 02:59:10;;;;;;;7.13;3.83;;;14.50;99.90;;;;;;5072030;28;20504;-68
2022/07/23 03:01:36;;;;;;;8.65;3.97;;;14.50;99.90;;;;;;5073645;28;20504;-68
2022/07/23 03:04:02;;;;;;;4.47;3.85;;;14.50;99.90;;;;;;5076276;28;20037;-68
2022/07/23 03:06:28;;;;;;;4.63;4.05;;;14.50;99.90;;;;;;5076701;28;20128;-67
2022/07/23 03:08:53;;;;;;;4.55;3.83;;;14.40;99.90;;;;;;5072009;28;20481;-68
2022/07/23 03:11:19;;;;;;;4.88;4.05;;;14.50;99.90;;;;;;5073182;28;20450;-67
2022/07/23 03:13:45;;;;;;;6.70;4.78;;;14.50;99.90;;;;;;5072861;28;20036;-68
2022/07/23 03:16:10;;;;;;;10.65;4.70;;;14.50;99.90;;;;;;5071876;28;20070;-67
2022/07/23 03:18:36;;;;;;;10.00;4.95;;;14.50;99.90;;;;;;5072989;28;20044;-67
2022/07/23 03:21:01;;;;;;;10.27;4.50;;;14.50;99.90;;;;;;5071220;28;20048;-68
2022/07/23 03:23:27;;;;;;;8.05;4.22;;;14.50;99.90;;;;;;5071013;28;20043;-68
2022/07/23 03:25:52;;;;;;;8.25;4.78;;;14.40;99.90;;;;;;5072701;28;20485;-67
2022/07/23 03:28:18;;;;;;;7.07;4.38;;;14.30;99.90;;;;;;5072852;28;20169;-68
2022/07/23 03:30:46;;;;;;;5.63;4.75;;;14.30;99.90;;;;;;5071324;28;20183;-68
2022/07/23 03:33:13;;;;;;;6.95;4.72;;;14.30;99.90;;;;;;5071052;28;20036;-67
2022/07/23 03:35:39;;;;;;;10.27;5.13;;;14.30;99.90;;;;;;5054727;28;20040;-67
2022/07/23 03:38:05;;;;;;;6.35;5.13;;;14.30;99.90;;;;;;5071973;28;20055;-68
2022/07/23 03:40:31;;;;;;;8.80;5.05;;;14.30;99.90;;;;;;5068715;28;20041;-68
2022/07/23 03:42:56;;;;;;;5.97;5.03;;;14.30;99.90;;;;;;5067815;28;20040;-67
2022/07/23 03:45:22;;;;;;;6.95;5.03;;;14.20;99.90;;;;;;5070080;28;20527;-67
2022/07/23 03:47:48;;;;;;;4.00;3.60;;;14.30;99.90;;;;;;5070652;28;20045;-67
2022/07/23 03:50:13;;;;;;;4.85;3.47;;;14.20;99.90;;;;;;5072042;28;20119;-68
2022/07/23 03:52:39;;;;;;;4.45;3.35;;;14.20;99.90;;;;;;5070183;28;20028;-68
2022/07/23 03:55:05;;;;;;;5.03;3.28;;;14.20;99.90;;;;;;5052975;28;20088;-68
2022/07/23 03:57:31;;;;;;;4.30;3.30;;;14.10;99.90;;;;;;5070946;28;20175;-69
2022/07/23 03:59:56;;;;;;;5.68;3.50;;;14.10;99.90;;;;;;5072358;28;20044;-69
2022/07/23 04:02:22;;;;;;;5.72;3.83;;;14.10;99.90;;;;;;5072010;28;20036;-69
2022/07/23 04:04:47;;;;;;;7.35;4.00;;;14.20;99.90;;;;;;5072117;28;20044;-68
2022/07/23 04:07:13;;;;;;;6.55;4.90;;;14.20;99.90;;;;;;5072178;28;20063;-68
2022/07/23 04:09:42;;;;;;;7.30;4.80;;;14.10;99.90;;;;;;5072346;28;20059;-68
2022/07/23 04:12:08;;;;;;;6.50;4.50;;;14.20;99.90;;;;;;5070961;28;20061;-69
2022/07/23 04:14:33;;;;;;;8.60;4.13;;;14.20;99.90;;;;;;5071172;28;20082;-68
2022/07/23 04:16:59;;;;;;;7.28;5.00;;;14.30;99.90;;;;;;5075181;28;20051;-69
2022/07/23 04:19:25;;;;;;;7.72;5.00;;;14.30;99.90;;;;;;5073967;28;20047;-68
2022/07/23 04:21:51;;;;;;;7.68;4.88;;;14.40;99.90;;;;;;5071741;28;20045;-69
2022/07/23 04:24:17;;;;;;;9.15;5.00;;;14.40;99.90;;;;;;5071702;28;20041;-69
2022/07/23 04:26:43;;;;;;;6.90;5.20;;;14.50;99.90;;;;;;5070093;28;20044;-69
2022/07/23 04:29:08;;;;;;;9.80;5.30;;;14.60;99.90;;;;;;5071728;28;20048;-68
2022/07/23 04:31:34;;;;;;;8.82;4.97;;;14.50;99.90;;;;;;5071760;28;20044;-69
2022/07/23 04:34:00;;;;;;;8.73;5.05;;;14.60;99.90;;;;;;5071471;28;20116;-69
2022/07/23 04:36:25;;;;;;;6.80;5.07;;;14.70;99.90;;;;;;5071535;28;20101;-67
2022/07/23 04:38:51;;;;;;;6.22;4.72;;;14.70;99.90;;;;;;5071750;28;20047;-68
2022/07/23 04:41:16;;;;;;;5.68;4.70;;;14.70;99.90;;;;;;5071498;28;20128;-68
2022/07/23 04:43:42;;;;;;;5.82;5.07;;;14.80;99.90;;;;;;5071181;28;20036;-68
2022/07/23 04:46:07;;;;;;;9.02;5.28;;;14.90;99.90;;;;;;5071430;28;20040;-69
2022/07/23 04:48:33;;;;;;;8.35;4.07;;;14.90;99.90;;;;;;5070773;28;20048;-69
2022/07/23 04:50:58;;;;;;;5.15;4.65;;;15.00;99.90;;;;;;5071093;28;20082;-69
2022/07/23 04:53:24;;;;;;;5.00;4.50;;;15.00;99.90;;;;;;5069587;28;20094;-69
2022/07/23 04:55:50;;;;;;;5.28;3.88;;;15.20;99.90;;;;;;5071249;28;20458;-69
2022/07/23 04:58:15;;;;;;;5.20;4.28;;;15.20;99.90;;;;;;5071241;28;20048;-69
2022/07/23 05:00:41;;;;;;;9.45;4.38;;;15.40;99.90;;;;;;5071091;28;20424;-69
2022/07/23 05:03:06;;;;;;;7.03;4.50;;;15.50;99.90;;;;;;5070858;28;20036;-69
2022/07/23 05:05:32;;;;;;;7.18;4.75;;;15.60;99.90;;;;;;5070747;28;20067;-69
2022/07/23 05:07:57;;;;;;;7.95;4.90;;;15.70;99.90;;;;;;5071088;28;20040;-70
2022/07/23 05:10:23;;;;;;;8.68;4.60;;;15.70;99.90;;;;;;5069776;28;20028;-69
2022/07/23 05:12:49;;;;;;;6.43;4.60;;;15.80;99.90;;;;;;5070863;28;20115;-69
2022/07/23 05:15:14;;;;;;;7.85;4.25;;;15.80;99.90;;;;;;5070814;28;20171;-69
2022/07/23 05:17:40;;;;;;;7.50;4.40;;;16.00;99.90;;;;;;5070739;28;20049;-70
2022/07/23 05:20:06;;;;;;;5.20;4.70;;;16.00;99.90;;;;;;5071905;28;20041;-69
2022/07/23 05:22:31;;;;;;;7.13;5.10;;;16.10;99.90;;;;;;5073975;28;20047;-69
2022/07/23 05:24:57;;;;;;;10.32;4.88;;;16.20;99.90;;;;;;5074228;28;20128;-69
2022/07/23 05:27:22;;;;;;;6.50;4.63;;;16.30;99.90;;;;;;5070246;28;20411;-69
2022/07/23 05:29:48;;;;;;;7.97;4.38;;;16.30;99.90;;;;;;5070700;28;20484;-69
2022/07/23 05:32:14;;;;;;;15.20;4.65;;;16.40;99.90;;;;;;5069078;28;20040;-69
2022/07/23 05:34:39;;;;;;;6.13;4.03;;;16.50;99.90;;;;;;5070513;28;20036;-69
2022/07/23 05:37:06;;;;;;;7.50;3.80;;;16.50;99.90;;;;;;5069387;28;20404;-69
2022/07/23 05:39:31;;;;;;;8.00;3.97;;;16.60;99.90;;;;;;5069110;28;20040;-68
2022/07/23 05:41:57;;;;;;;6.30;4.15;;;16.60;99.90;;;;;;5069010;28;20424;-68
2022/07/23 05:44:23;;;;;;;8.50;4.05;;;16.60;99.90;;;;;;5070164;28;20040;-67
2022/07/23 05:46:48;;;;;;;6.10;3.88;;;16.70;99.90;;;;;;5070311;28;20471;-68
2022/07/23 05:49:14;;;;;;;5.35;3.85;;;16.80;99.90;;;;;;5068673;28;20047;-68
2022/07/23 05:51:40;;;;;;;5.63;3.85;;;16.90;99.90;;;;;;5068884;28;20085;-68
2022/07/23 05:54:05;;;;;;;5.25;3.83;;;17.00;99.90;;;;;;5068848;28;20335;-68
2022/07/23 05:56:31;;;;;;;6.45;3.60;;;17.10;99.90;;;;;;5070159;28;20047;-68
2022/07/23 05:58:56;;;;;;;7.55;3.70;;;17.20;99.90;;;;;;5070012;28;20043;-68
2022/07/23 06:01:22;;;;;;;4.53;3.20;;;17.20;99.90;;;;;;5070124;28;20036;-68
2022/07/23 06:03:48;;;;;;;5.03;3.78;;;17.30;99.90;;;;;;5069872;28;20082;-68
2022/07/23 06:06:13;;;;;;;7.22;3.80;;;17.40;99.90;;;;;;5070178;28;20043;-68
2022/07/23 06:08:39;;;;;;;5.80;3.13;;;17.50;99.90;;;;;;5070551;28;20039;-67
2022/07/23 06:11:04;;;;;;;5.97;3.53;;;17.60;99.90;;;;;;5069125;28;20118;-68
2022/07/23 06:13:30;;;;;;;6.13;3.78;;;17.60;99.90;;;;;;5070040;28;20033;-68
2022/07/23 06:15:55;;;;;;;6.90;3.38;;;17.60;99.90;;;;;;5070023;28;20040;-67
2022/07/23 06:18:21;;;;;;;7.22;3.70;;;17.80;99.90;;;;;;5070011;28;20036;-68
2022/07/23 06:20:47;;;;;;;7.00;3.03;;;17.70;99.90;;;;;;5068500;28;20048;-68
2022/07/23 06:23:12;;;;;;;4.95;3.33;;;17.90;99.90;;;;;;5068432;28;20044;-69
2022/07/23 06:25:38;;;;;;;3.75;2.95;;;17.90;99.90;;;;;;5068490;28;20485;-69
2022/07/23 06:28:04;;;;;;;3.97;3.60;;;18.00;99.90;;;;;;5070028;28;20102;-67
2022/07/23 06:30:30;;;;;;;5.65;2.90;;;18.10;99.90;;;;;;5068890;28;20040;-68
2022/07/23 06:32:55;;;;;;;4.07;3.67;;;18.10;99.90;;;;;;5075701;28;20040;-69
2022/07/23 06:35:21;;;;;;;9.15;3.17;;;18.10;99.90;;;;;;5080317;28;20048;-69
2022/07/23 06:37:47;;;;;;;3.55;3.20;;;18.30;99.90;;;;;;5070191;28;20736;-69
2022/07/23 06:40:12;;;;;;;6.03;3.10;;;18.30;99.90;;;;;;5068569;28;20040;-68
2022/07/23 06:42:41;;;;;;;6.35;3.30;;;18.30;99.90;;;;;;5068480;28;20052;-68
2022/07/23 06:45:07;;;;;;;5.85;3.13;;;18.40;99.90;;;;;;5068667;28;20047;-69
2022/07/23 06:47:33;;;;;;;7.78;2.85;;;18.50;99.90;;;;;;5068664;28;20040;-69
2022/07/23 06:49:59;;;;;;;3.97;2.67;;;18.60;99.90;;;;;;5070115;28;20554;-69
2022/07/23 06:52:25;;;;;;;3.75;2.92;;;18.70;99.90;;;;;;5068233;28;20115;-69
2022/07/23 06:54:52;;;;;;;5.60;2.78;;;18.70;99.90;;;;;;5068611;28;20041;-69
2022/07/23 06:57:18;;;;;;;8.07;2.42;;;18.90;99.90;;;;;;5068450;28;20045;-69
2022/07/23 06:59:43;;;;;;;4.55;2.55;;;18.80;99.90;;;;;;5069675;28;20326;-70
2022/07/23 07:02:09;;;;;;;6.35;2.58;;;19.00;99.90;;;;;;5051747;28;20028;-69
2022/07/23 07:04:35;;;;;;;4.10;2.20;;;19.00;99.90;;;;;;5069512;28;20032;-69
2022/07/23 07:07:00;;;;;;;3.00;2.10;;;19.10;99.90;;;;;;5069686;28;20052;-69
2022/07/23 07:09:26;;;;;;;8.35;2.53;;;19.20;99.90;;;;;;5069569;28;20148;-70
2022/07/23 07:11:52;;;;;;;3.75;2.20;;;19.20;99.90;;;;;;5070105;28;20036;-69
2022/07/23 07:14:17;;;;;;;5.68;1.85;;;19.30;99.90;;;;;;5072776;28;20404;-69
2022/07/23 07:16:43;;;;;;;2.60;2.10;;;19.40;99.90;;;;;;5072889;28;20044;-69
2022/07/23 07:19:09;;;;;;;4.65;1.90;;;19.40;99.90;;;;;;5071360;28;20507;-69
2022/07/23 07:21:34;;;;;;;4.75;2.08;;;19.50;99.90;;;;;;5072873;28;20528;-70
2022/07/23 07:24:00;;;;;;;2.22;1.85;;;19.50;99.90;;;;;;5072873;28;20489;-70
2022/07/23 07:26:27;;;;;;;5.28;2.53;;;19.50;99.90;;;;;;5072903;28;20060;-69
2022/07/23 07:28:52;;;;;;;6.38;2.17;;;19.60;99.90;;;;;;5072320;28;20047;-70
2022/07/23 07:31:18;;;;;;;3.75;1.73;;;19.60;99.90;;;;;;5072964;28;20036;-69
2022/07/23 07:33:43;;;;;;;3.22;1.70;;;19.70;99.90;;;;;;5072481;28;20044;-69
2022/07/23 07:36:09;;;;;;;3.03;1.75;;;19.50;99.90;;;;;;5071431;28;20045;-69
2022/07/23 07:38:34;;;;;;;2.90;1.77;;;19.60;99.90;;;;;;5072540;28;20468;-69
2022/07/23 07:41:00;;;;;;;7.18;1.60;;;19.60;99.90;;;;;;5073704;28;20051;-69
2022/07/23 07:43:26;;;;;;;3.78;1.60;;;19.70;99.90;;;;;;5085020;28;20032;-70
2022/07/23 07:45:51;;;;;;;6.72;1.65;;;19.80;99.90;;;;;;5081684;28;20498;-69
2022/07/23 07:48:17;;;;;;;4.18;1.90;;;19.80;99.90;;;;;;5072672;28;20037;-69
2022/07/23 07:50:42;;;;;;;3.75;1.95;;;19.90;99.90;;;;;;5070793;28;20427;-69
2022/07/23 07:53:08;;;;;;;5.07;2.00;;;20.00;99.90;;;;;;5095520;28;20484;-69
2022/07/23 07:55:34;;;;;;;5.25;1.65;;;20.00;99.90;;;;;;5105821;28;20040;-69
2022/07/23 07:58:00;;;;;;;3.15;1.52;;;20.10;99.90;;;;;;5106464;28;20044;-69
2022/07/23 08:00:26;;;;;;;3.08;1.50;;;20.10;99.90;;;;;;5113087;28;20380;-69
2022/07/23 08:02:54;;;;;;;2.92;1.50;;;20.20;99.90;;;;;;5113150;28;20043;-72
2022/07/23 08:05:24;;;;;;;2.92;1.27;;;20.20;99.90;;;;;;5112328;28;20044;-70
2022/07/23 08:07:50;;;;;;;1.33;1.20;;;20.20;99.90;;;;;;5111980;28;20039;-70
2022/07/23 08:10:16;;;;;;;3.97;1.05;;;19.90;99.90;;;;;;5113432;28;20100;-70
2022/07/23 08:12:47;;;;;;;7.07;1.17;;;19.90;99.90;;;;;;5118180;28;20122;-71
2022/07/23 08:15:14;;;;;;;5.95;1.40;;;20.00;99.90;;;;;;5122441;28;20065;-70
2022/07/23 08:17:41;;;;;;;3.75;1.23;;;20.20;99.90;;;;;;5113128;28;20115;-71
2022/07/23 08:20:07;;;;;;;2.53;1.17;;;20.20;99.90;;;;;;5112778;28;20089;-70
2022/07/23 08:22:45;;;;;;;1.10;1.00;;;20.30;99.90;;;;;;5094088;28;20036;-70
2022/07/23 08:25:10;;;;;;;6.70;1.40;;;20.20;99.90;;;;;;5111518;28;20152;-70
2022/07/23 08:27:36;;;;;;;3.10;0.90;;;20.40;99.90;;;;;;5111673;28;20492;-71
2022/07/23 08:30:02;;;;;;;5.97;1.30;;;20.50;99.90;;;;;;5111573;28;20039;-70
2022/07/23 08:32:28;;;;;;;2.88;1.08;;;20.50;99.90;;;;;;5111057;28;20397;-70
2022/07/23 08:34:53;;;;;;;1.65;0.90;;;20.20;99.90;;;;;;5112422;28;20054;-70
2022/07/23 08:37:19;;;;;;;4.20;0.90;;;20.20;99.90;;;;;;5111119;28;20047;-71
2022/07/23 08:39:44;;;;;;;2.72;1.30;;;20.30;99.90;;;;;;5112563;28;20525;-70
2022/07/23 08:42:11;;;;;;;1.77;1.38;;;20.50;99.90;;;;;;5110834;28;20031;-71
2022/07/23 08:44:38;;;;;;;4.13;1.17;;;20.50;99.90;;;;;;5110874;28;20051;-70
2022/07/23 08:47:04;;;;;;;1.30;1.20;;;20.40;99.90;;;;;;5110822;28;20043;-71
2022/07/23 08:49:30;;;;;;;1.08;0.82;;;20.40;99.90;;;;;;5111733;28;20032;-70
2022/07/23 08:51:56;;;;;;;2.00;0.90;;;20.30;99.90;;;;;;5124910;28;20020;-70
2022/07/23 08:54:22;;;;;;;1.40;1.05;;;20.30;99.90;;;;;;5133219;28;20012;-71
2022/07/23 08:56:48;;;;;;;3.08;1.00;;;20.20;99.90;;;;;;5111325;28;20043;-71
2022/07/23 08:59:14;;;;;;;1.95;1.20;;;20.30;99.90;;;;;;5110763;28;20044;-70
2022/07/23 09:01:40;;;;;;;4.03;1.33;;;20.20;99.90;;;;;;5093715;28;20035;-70
2022/07/23 09:04:05;;;;;;;4.25;1.10;;;20.20;99.90;;;;;;5110510;28;20382;-71
2022/07/23 09:06:31;;;;;;;3.33;1.88;;;20.20;99.90;;;;;;5093569;28;20048;-71
2022/07/23 09:08:57;;;;;;;2.80;1.15;;;20.30;99.90;;;;;;5110434;28;20523;-70
2022/07/23 09:11:22;;;;;;;2.38;0.90;;;20.40;99.90;;;;;;5093840;28;20047;-71
2022/07/23 09:13:53;;;;;;;3.53;1.10;;;20.30;99.90;;;;;;5110008;28;20510;-70
2022/07/23 09:16:20;;;;;;;5.47;1.55;;;20.50;99.90;;;;;;5110464;28;20532;-70
2022/07/23 09:19:07;;;;;;;0.90;0.90;;;20.60;99.90;;;;;;5093107;28;20035;-71
2022/07/23 09:21:38;;;;;;;1.58;0.90;;;20.70;99.90;;;;;;5109604;28;20047;-70
2022/07/23 09:24:04;;;;;;;1.95;1.05;;;21.00;99.90;;;;;;5109933;28;20139;-70
2022/07/23 09:26:30;;;;;;;2.60;1.00;;;21.00;99.90;;;;;;5110155;28;20089;-71
2022/07/23 09:28:59;;;;;;;1.27;1.10;;;21.00;99.90;;;;;;5093212;28;20043;-70
2022/07/23 09:31:32;;;;;;;2.40;1.08;;;21.10;99.90;;;;;;5111705;28;20434;-71
2022/07/23 09:34:11;;;;;;;;;;;20.80;99.90;;;;;;5115815;28;20599;-71
2022/07/23 09:36:38;;;;;;;2.13;1.20;;;20.80;99.90;;;;;;5112946;28;20018;-71
2022/07/23 09:39:04;;;;;;;1.40;1.00;;;20.90;99.90;;;;;;5109883;28;20043;-71
2022/07/23 09:41:35;;;;;;;2.97;1.08;;;20.80;99.90;;;;;;5109988;28;20142;-71
2022/07/23 09:44:09;;;;;;;1.65;1.20;;;20.80;99.90;;;;;;5109776;28;20078;-71
2022/07/23 09:46:35;;;;;;;3.08;1.00;;;20.80;99.90;;;;;;5109807;28;20047;-71
2022/07/23 09:49:11;;;;;;;2.78;1.33;;;20.90;99.90;;;;;;5092747;28;20092;-71
2022/07/23 09:51:48;;;;;;;2.05;1.00;;;21.10;99.90;;;;;;5109799;28;20088;-71
2022/07/23 09:54:29;;;;;;;2.70;1.33;;;21.10;99.90;;;;;;5109729;28;20044;-71
2022/07/23 09:56:55;;;;;;;1.10;1.00;;;21.30;99.90;;;;;;5110955;28;20055;-71
2022/07/23 09:59:27;;;;;;;2.22;1.13;;;21.30;99.90;;;;;;5110329;28;20047;-71
2022/07/23 10:01:55;;;;;;;0.93;0.93;;;21.40;99.90;;;;;;5126047;28;20032;-70
2022/07/23 10:04:23;;;;;;;1.83;1.00;;;21.20;99.90;;;;;;5121155;28;20043;-69
2022/07/23 10:06:52;;;;;;;1.35;1.00;;;21.30;99.90;;;;;;5110834;28;20088;-71
2022/07/23 10:09:30;;;;;;;2.00;0.90;;;21.30;99.90;;;;;;5110009;28;20377;-68
2022/07/23 10:12:50;;;;;;;2.15;0.65;;;21.30;99.90;;;;;;5102420;28;20043;-68
2022/07/23 10:14:48;;;;;;;1.23;0.82;;;21.30;99.90;;;;;;5106853;28;20039;-68
2022/07/23 10:17:14;;;;;;;1.48;1.00;;;21.60;99.90;;;;;;5110408;28;20104;-69
2022/07/23 10:19:40;;;;;;;2.80;1.00;;;21.80;99.90;;;;;;5110307;28;20071;-69
2022/07/23 10:22:14;;;;;;;2.17;0.95;;;21.80;99.90;;;;;;5110235;28;20519;-68
2022/07/23 10:25:05;;;;;;;1.15;0.77;;;21.80;99.90;;;;;;5108735;28;20060;-69
2022/07/23 10:27:39;;;;;;;2.45;1.08;;;21.80;99.90;;;;;;5110260;28;20162;-68
2022/07/23 10:30:07;;;;;;;3.53;1.02;;;21.80;99.90;;;;;;5108474;28;20044;-69
2022/07/23 10:32:57;;;;;;;1.38;0.70;;;22.00;99.90;;;;;;5109969;28;20054;-69
2022/07/23 10:35:33;;;;;;;5.10;1.30;;;22.00;99.90;;;;;;5079259;28;20044;-69
2022/07/23 10:38:11;;;;;;;3.47;1.30;;;22.10;99.90;;;;;;5080201;28;20093;-69
2022/07/23 10:40:37;;;;;;;1.73;0.95;;;22.10;99.90;;;;;;5079562;28;20370;-69
2022/07/23 10:43:15;;;;;;;1.00;1.00;;;22.20;99.90;;;;;;5075113;28;20039;-67
2022/07/23 10:45:40;;;;;;;2.20;0.90;;;22.30;99.90;;;;;;5073479;28;20044;-67
2022/07/23 10:48:20;;;;;;;2.15;0.90;;;22.40;99.90;;;;;;5082768;28;20043;-67
2022/07/23 10:51:15;;;;;;;1.75;1.02;;;22.50;99.90;;;;;;5063625;28;20789;-67
2022/07/23 10:53:54;;;;;;;3.80;1.50;;;22.50;99.90;;;;;;5082181;28;20029;-67
2022/07/23 10:56:51;;;;;;;1.80;1.02;;;22.40;99.90;;;;;;5074323;28;20119;-67
2022/07/23 10:59:16;;;;;;;2.25;1.00;;;22.60;99.90;;;;;;5079263;28;20416;-67
2022/07/23 11:01:42;;;;;;;1.17;0.90;;;22.50;99.90;;;;;;5083236;28;20038;-67
2022/07/23 11:04:08;;;;;;;1.55;1.00;;;22.40;99.90;;;;;;5081215;28;20037;-67
2022/07/23 11:06:48;;;;;;;4.30;1.17;;;22.60;99.90;;;;;;5065102;28;20032;-67
2022/07/23 11:09:40;;;;;;;1.17;1.08;;;22.50;99.90;;;;;;5084992;28;20032;-67
2022/07/23 11:12:24;;;;;;;3.28;1.10;;;22.60;99.90;;;;;;5078938;28;20070;-67
2022/07/23 11:15:07;;;;;;;1.65;1.10;;;22.40;99.90;;;;;;5071901;28;20636;-68
2022/07/23 11:17:39;;;;;;;1.88;1.20;;;22.50;99.90;;;;;;5072895;28;20399;-67
2022/07/23 11:20:07;;;;;;;1.50;1.20;;;22.60;99.90;;;;;;5071103;28;20043;-67
2022/07/23 11:22:47;;;;;;;2.08;1.33;;;22.60;99.90;;;;;;5071052;28;20052;-67
2022/07/23 11:25:27;;;;;;;2.25;1.08;;;22.80;99.90;;;;;;5072526;28;20032;-67
2022/07/23 11:27:53;;;;;;;1.90;1.25;;;22.80;99.90;;;;;;5072504;28;20060;-68
2022/07/23 11:30:28;;;;;;;2.33;1.08;;;22.80;99.90;;;;;;5072506;28;20575;-67
2022/07/23 11:33:14;;;;;;;1.60;1.40;;;22.60;99.90;;;;;;5070740;28;20036;-67
2022/07/23 11:36:00;;;;;;;1.10;1.00;;;22.80;99.90;;;;;;5072247;28;20576;-68
2022/07/23 11:38:25;;;;;;;3.40;1.10;;;22.90;99.90;;;;;;5054714;28;20323;-67
2022/07/23 11:40:57;;;;;;;1.80;1.17;;;23.00;99.90;;;;;;5072663;28;20090;-67
2022/07/23 11:43:23;;;;;;;2.60;1.38;;;22.90;99.90;;;;;;5072312;28;20044;-68
2022/07/23 11:45:52;;;;;;;2.17;1.30;;;23.10;99.90;;;;;;5072360;28;20037;-67
2022/07/23 11:48:22;;;;;;;1.25;1.13;;;23.00;99.90;;;;;;5072402;28;20044;-67
2022/07/23 11:50:48;;;;;;;2.97;1.20;;;23.00;99.90;;;;;;5072111;28;20527;-67
2022/07/23 11:53:21;;;;;;;3.40;1.23;;;23.10;99.90;;;;;;5072118;28;20032;-67
2022/07/23 11:55:46;;;;;;;1.75;1.50;;;23.00;99.90;;;;;;5072377;28;20443;-67
2022/07/23 11:58:12;;;;;;;1.95;1.75;;;23.10;99.90;;;;;;5071805;28;20033;-67
2022/07/23 12:00:40;;;;;;;2.28;1.40;;;23.10;99.90;;;;;;5071904;28;20044;-66
2022/07/23 12:03:06;;;;;;;1.70;1.50;;;23.10;99.90;;;;;;5071740;28;20045;-69
2022/07/23 12:05:35;;;;;;;1.52;1.42;;;23.00;99.90;;;;;;5072102;28;20050;-68
2022/07/23 12:08:04;;;;;;;1.60;1.50;;;23.20;99.90;;;;;;5070840;28;20048;-69
2022/07/23 12:10:36;;;;;;;2.63;1.48;;;23.20;99.90;;;;;;5070436;28;20044;-69
2022/07/23 12:13:07;;;;;;;1.77;1.30;;;23.30;99.90;;;;;;5071778;28;20044;-69
2022/07/23 12:15:38;;;;;;;2.25;1.33;;;23.30;99.90;;;;;;5071879;28;20040;-67
2022/07/23 12:18:04;;;;;;;3.10;1.50;;;23.30;99.90;;;;;;5075090;28;20055;-67
2022/07/23 12:20:33;;;;;;;4.95;1.58;;;23.30;99.90;;;;;;5081843;28;20036;-67
2022/07/23 12:23:00;;;;;;;3.85;1.50;;;23.40;99.90;;;;;;5073606;28;20032;-67
2022/07/23 12:25:33;;;;;;;2.83;1.70;;;23.10;99.90;;;;;;5071987;28;20108;-68
2022/07/23 12:28:07;;;;;;;2.95;1.63;;;23.10;99.90;;;;;;5071630;28;20431;-68
2022/07/23 12:30:41;;;;;;;6.43;1.70;;;23.00;99.90;;;;;;5071424;28;20040;-68
2022/07/23 12:33:08;;;;;;;2.90;1.65;;;23.10;99.90;;;;;;5071405;28;20036;-68
2022/07/23 12:35:36;;;;;;;2.17;1.35;;;23.20;99.90;;;;;;5071556;28;20436;-68
2022/07/23 12:38:04;;;;;;;1.80;1.70;;;23.30;99.90;;;;;;5071555;28;20051;-68
2022/07/23 12:40:45;;;;;;;2.90;1.70;;;23.40;99.90;;;;;;5071254;28;20154;-68
2022/07/23 12:43:25;;;;;;;2.15;1.73;;;23.30;99.90;;;;;;5053158;28;20044;-68
2022/07/23 12:46:10;;;;;;;3.65;1.60;;;23.20;99.90;;;;;;5071355;28;20047;-68
2022/07/23 12:48:36;;;;;;;4.05;1.77;;;23.40;99.90;;;;;;5071430;28;20044;-68
2022/07/23 12:51:13;;;;;;;4.70;1.52;;;23.40;99.90;;;;;;5069960;28;20654;-68